Map

Track Data

SID SEASON NUMBER BASIN SUBBASIN NAME ISO_TIME NATURE LAT LON WMO_WIND WMO_PRES WMO_AGENCY TRACK_TYPE DIST2LAND LANDFALL IFLAG USA_AGENCY USA_ATCF_ID USA_LAT USA_LON USA_RECORD USA_STATUS USA_WIND USA_PRES USA_SSHS USA_R34_NE USA_R34_SE USA_R34_SW USA_R34_NW USA_R50_NE USA_R50_SE USA_R50_SW USA_R50_NW USA_R64_NE USA_R64_SE USA_R64_SW USA_R64_NW USA_POCI USA_ROCI USA_RMW USA_EYE TOKYO_LAT TOKYO_LON TOKYO_GRADE TOKYO_WIND TOKYO_PRES TOKYO_R50_DIR TOKYO_R50_LONG TOKYO_R50_SHORT TOKYO_R30_DIR TOKYO_R30_LONG TOKYO_R30_SHORT TOKYO_LAND CMA_LAT CMA_LON CMA_CAT CMA_WIND CMA_PRES HKO_LAT HKO_LON HKO_CAT HKO_WIND HKO_PRES NEWDELHI_LAT NEWDELHI_LON NEWDELHI_GRADE NEWDELHI_WIND NEWDELHI_PRES NEWDELHI_CI NEWDELHI_DP NEWDELHI_POCI REUNION_LAT REUNION_LON REUNION_TYPE REUNION_WIND REUNION_PRES REUNION_TNUM REUNION_CI REUNION_RMW REUNION_R34_NE REUNION_R34_SE REUNION_R34_SW REUNION_R34_NW REUNION_R50_NE REUNION_R50_SE REUNION_R50_SW REUNION_R50_NW REUNION_R64_NE REUNION_R64_SE REUNION_R64_SW REUNION_R64_NW BOM_LAT BOM_LON BOM_TYPE BOM_WIND BOM_PRES BOM_TNUM BOM_CI BOM_RMW BOM_R34_NE BOM_R34_SE BOM_R34_SW BOM_R34_NW BOM_R50_NE BOM_R50_SE BOM_R50_SW BOM_R50_NW BOM_R64_NE BOM_R64_SE BOM_R64_SW BOM_R64_NW BOM_ROCI BOM_POCI BOM_EYE BOM_POS_METHOD BOM_PRES_METHOD NADI_LAT NADI_LON NADI_CAT NADI_WIND NADI_PRES WELLINGTON_LAT WELLINGTON_LON WELLINGTON_WIND WELLINGTON_PRES DS824_LAT DS824_LON DS824_STAGE DS824_WIND DS824_PRES TD9636_LAT TD9636_LON TD9636_STAGE TD9636_WIND TD9636_PRES TD9635_LAT TD9635_LON TD9635_WIND TD9635_PRES TD9635_ROCI NEUMANN_LAT NEUMANN_LON NEUMANN_CLASS NEUMANN_WIND NEUMANN_PRES MLC_LAT MLC_LON MLC_CLASS MLC_WIND MLC_PRES USA_GUST BOM_GUST BOM_GUST_PER REUNION_GUST REUNION_GUST_PER USA_SEAHGT USA_SEARAD_NE USA_SEARAD_SE USA_SEARAD_SW USA_SEARAD_NW STORM_SPEED STORM_DIR
1995255N14104 1995 64 WP MM NOT_NAMED 1995-09-12 00:00:00 NR 14.2000 103.700 main 0 0 O_____________ jtwc_io IO011995 14.2000 103.700 15 -1 16 295
1995255N14104 1995 64 WP MM NOT_NAMED 1995-09-12 03:00:00 NR 14.5406 102.945 main 0 0 P_____________ IO011995 14.5406 102.945 15 -1 16 296
1995255N14104 1995 64 WP MM NOT_NAMED 1995-09-12 06:00:00 NR 14.9000 102.200 main 0 0 O_____________ jtwc_io IO011995 14.9000 102.200 15 -1 16 297
1995255N14104 1995 64 WP MM NOT_NAMED 1995-09-12 09:00:00 NR 15.2796 101.465 main 0 0 P_____________ IO011995 15.2796 101.465 15 -1 16 296
1995255N14104 1995 64 WP MM NOT_NAMED 1995-09-12 12:00:00 NR 15.6000 100.700 main 0 0 O_____________ jtwc_io IO011995 15.6000 100.700 15 -1 16 288
1995255N14104 1995 64 NI BB NOT_NAMED 1995-09-12 15:00:00 NR 15.7948 99.8648 main 0 0 P_____________ IO011995 15.7948 99.8648 15 -1 17 280
1995255N14104 1995 64 NI BB NOT_NAMED 1995-09-12 18:00:00 NR 15.9000 99.0000 main 0 0 O_____________ jtwc_io IO011995 15.9000 99.0000 15 -1 17 276
1995255N14104 1995 64 NI BB NOT_NAMED 1995-09-12 21:00:00 NR 15.9573 98.1347 main 0 0 P_____________ IO011995 15.9573 98.1347 15 -1 16 274
1995255N14104 1995 64 NI BB NOT_NAMED 1995-09-13 00:00:00 NR 16.0000 97.3000 main 33 33 O_____________ jtwc_io IO011995 16.0000 97.3000 15 -1 15 275
1995255N14104 1995 64 NI BB NOT_NAMED 1995-09-13 03:00:00 NR 16.0845 96.5424 main 39 0 P_____________ IO011995 16.0845 96.5424 17 -1 15 278
1995255N14104 1995 64 NI BB NOT_NAMED 1995-09-13 06:00:00 NR 16.2000 95.8000 main 0 0 O_____________ jtwc_io IO011995 16.2000 95.8000 20 -1 15 278
1995255N14104 1995 64 NI BB NOT_NAMED 1995-09-13 09:00:00 NR 16.2977 94.9622 main 0 0 P_____________ IO011995 16.2977 94.9622 20 -1 16 281
1995255N14104 1995 64 NI BB NOT_NAMED 1995-09-13 12:00:00 NR 16.5000 94.2000 main 10 10 O_____________ jtwc_io IO011995 16.5000 94.2000 20 -1 14 295
1995255N14104 1995 64 NI BB NOT_NAMED 1995-09-13 15:00:00 NR 16.9122 93.6178 main 85 85 P_____________ IO011995 16.9122 93.6178 20 -1 13 313
1995255N14104 1995 64 NI BB NOT_NAMED 1995-09-13 18:00:00 NR 17.4000 93.2000 main 139 139 O_____________ jtwc_io IO011995 17.4000 93.2000 20 -1 11 324
1995255N14104 1995 64 NI BB NOT_NAMED 1995-09-13 21:00:00 NR 17.8298 92.9122 main 153 138 P_____________ IO011995 17.8298 92.9122 20 -1 9 329
1995255N14104 1995 64 NI BB NOT_NAMED 1995-09-14 00:00:00 NR 18.2000 92.7000 main 138 131 O_____________ jtwc_io IO011995 18.2000 92.7000 20 -1 8 326
1995255N14104 1995 64 NI BB NOT_NAMED 1995-09-14 03:00:00 NR 18.4800 92.4424 main 147 143 P_____________ IO011995 18.4800 92.4424 22 -1 7 316
1995255N14104 1995 64 NI BB NOT_NAMED 1995-09-14 06:00:00 NR 18.7000 92.2000 main 161 157 O_____________ jtwc_io IO011995 18.7000 92.2000 25 -1 6 316
1995255N14104 1995 64 NI BB NOT_NAMED 1995-09-14 09:00:00 NR 18.9225 91.9925 main 164 153 P_____________ IO011995 18.9225 91.9925 25 -1 6 317
1995255N14104 1995 64 NI BB NOT_NAMED 1995-09-14 12:00:00 NR 19.1000 91.8000 main 160 160 O_____________ jtwc_io IO011995 19.1000 91.8000 25 -1 5 308
1995255N14104 1995 64 NI BB NOT_NAMED 1995-09-14 15:00:00 NR 19.2150 91.5999 main 168 168 P_____________ IO011995 19.2150 91.5999 27 -1 4 298
1995255N14104 1995 64 NI BB NOT_NAMED 1995-09-14 18:00:00 NR 19.3000 91.4000 main 176 176 O_____________ jtwc_io IO011995 19.3000 91.4000 30 -1 4 297
1995255N14104 1995 64 NI BB NOT_NAMED 1995-09-14 21:00:00 NR 19.4075 91.2075 main 186 186 P_____________ IO011995 19.4075 91.2075 30 -1 4 298
1995255N14104 1995 64 NI BB NOT_NAMED 1995-09-15 00:00:00 NR 19.5000 91.0000 main 198 198 O_____________ jtwc_io IO011995 19.5000 91.0000 30 -1 5 289
1995255N14104 1995 64 NI BB NOT_NAMED 1995-09-15 03:00:00 NR 19.5575 90.7500 main 215 215 P_____________ IO011995 19.5575 90.7500 30 -1 5 282
1995255N14104 1995 64 NI BB NOT_NAMED 1995-09-15 06:00:00 NR 19.6000 90.5000 main 233 233 O_____________ jtwc_io IO011995 19.6000 90.5000 30 -1 4 283
1995255N14104 1995 64 NI BB NOT_NAMED 1995-09-15 09:00:00 NR 19.6574 90.3000 main 235 234 P_____________ IO011995 19.6574 90.3000 30 -1 4 285
1995255N14104 1995 64 NI BB NOT_NAMED 1995-09-15 12:00:00 NR 19.7000 90.1000 main 234 228 O_____________ jtwc_io IO011995 19.7000 90.1000 30 -1 4 276
1995255N14104 1995 64 NI BB NOT_NAMED 1995-09-15 15:00:00 NR 19.7000 89.8574 main 228 218 P_____________ IO011995 19.7000 89.8574 27 -1 5 270
1995255N14104 1995 64 NI BB NOT_NAMED 1995-09-15 18:00:00 NR 19.7000 89.6000 main 218 218 O_____________ jtwc_io IO011995 19.7000 89.6000 25 -1 4 250
1995255N14104 1995 64 NI BB NOT_NAMED 1995-09-15 21:00:00 NR 19.5699 89.4859 25 998 newdelhi main 227 212 P___O_________ IO011995 19.7124 89.3573 25 -1 19.0000 90.0000 25 998 1.50000 4 1002 3 270
1995255N14104 1995 64 NI BB NOT_NAMED 1995-09-16 00:00:00 NR 19.7000 89.2333 25 998 newdelhi main 212 190 O___O_________ jtwc_io IO011995 19.8000 89.1000 25 -1 19.5000 89.5000 25 998 1.50000 4 1002 6 305
1995255N14104 1995 64 NI BB NOT_NAMED 1995-09-16 03:00:00 NR 19.8986 88.9809 main 190 168 P___P_________ IO011995 19.9976 88.7926 27 -1 19.7666 89.2321 25 998 4 1002 6 315
1995255N14104 1995 64 NI BB NOT_NAMED 1995-09-16 06:00:00 NR 20.1500 88.7500 25 998 newdelhi main 156 111 O___O_________ jtwc_io IO011995 20.3000 88.5000 30 -1 20.0000 89.0000 25 998 1.50000 4 1002 9 323
1995255N14104 1995 64 NI BB NOT_NAMED 1995-09-16 09:00:00 NR 20.6189 88.4043 main 111 67 P___P_________ IO011995 20.6998 88.3074 32 -1 20.5379 88.5011 25 998 4 1002 11 324
1995255N14104 1995 64 NI BB NOT_NAMED 1995-09-16 12:00:00 NR 21.0500 88.0500 25 998 newdelhi main 56 56 O___O_________ jtwc_io IO011995 21.1000 88.1000 35 0 21.0000 88.0000 25 998 1.50000 4 1002 8 312
1995255N14104 1995 64 NI BB NOT_NAMED 1995-09-16 15:00:00 NR 21.1382 87.7893 main 67 35 P___P_________ IO011995 21.3725 87.7724 40 0 20.9039 87.8063 25 998 4 1002 6 294
1995255N14104 1995 64 NI BB NOT_NAMED 1995-09-16 18:00:00 NR 21.3000 87.4500 25 998 newdelhi main 35 0 O___O_________ jtwc_io IO011995 21.6000 87.4000 45 0 21.0000 87.5000 25 998 1.50000 4 1002 11 310
1995255N14104 1995 64 NI BB NOT_NAMED 1995-09-16 21:00:00 NR 21.8212 86.9286 newdelhi main 0 0 P___O_________ IO011995 21.8424 87.0573 42 0 21.8000 86.8000 0.00000 11 314
1995255N14104 1995 64 NI BB NOT_NAMED 1995-09-17 00:00:00 NR 22.0571 86.6143 newdelhi main 0 0 O___O_________ jtwc_io IO011995 22.1000 86.7000 40 0 22.0000 86.5000 0.00000 9 313
1995255N14104 1995 64 NI BB NOT_NAMED 1995-09-17 03:00:00 NR 22.4438 86.2024 main 0 0 P___P_________ IO011995 22.4000 86.3000 37 0 22.5314 86.0072 11 315
1995255N14104 1995 64 NI BB NOT_NAMED 1995-09-17 06:00:00 NR 22.8400 85.7800 newdelhi main 0 0 O___O_________ jtwc_io IO011995 22.7000 85.9000 35 0 23.4000 85.3000 0.00000 8 311
1995255N14104 1995 64 NI BB NOT_NAMED 1995-09-17 09:00:00 NR 22.9573 85.5497 main 0 0 P_____________ IO011995 22.9573 85.5497 32 -1 6 304
1995255N14104 1995 64 NI BB NOT_NAMED 1995-09-17 12:00:00 NR 23.2000 85.2000 main 0 0 O_____________ jtwc_io IO011995 23.2000 85.2000 30 -1 8 306
1995255N14104 1995 64 NI BB NOT_NAMED 1995-09-17 15:00:00 NR 23.4499 84.8148 main 0 0 P_____________ IO011995 23.4499 84.8148 27 -1 9 304
1995255N14104 1995 64 NI BB NOT_NAMED 1995-09-17 18:00:00 NR 23.7000 84.4000 main 0 0 O_____________ jtwc_io IO011995 23.7000 84.4000 25 -1 9 301
1995255N14104 1995 64 NI BB NOT_NAMED 1995-09-17 21:00:00 NR 23.9350 83.9498 main 0 0 P_____________ IO011995 23.9350 83.9498 25 -1 10 301
1995255N14104 1995 64 NI BB NOT_NAMED 1995-09-18 00:00:00 NR 24.2000 83.5000 main 0 0 O_____________ jtwc_io IO011995 24.2000 83.5000 25 -1 10 307
1995255N14104 1995 64 NI BB NOT_NAMED 1995-09-18 03:00:00 NR 24.5425 83.0701 main 0 0 P_____________ IO011995 24.5425 83.0701 22 -1 10 314
1995255N14104 1995 64 NI BB NOT_NAMED 1995-09-18 06:00:00 NR 24.9000 82.7000 main 0 0 O_____________ jtwc_io IO011995 24.9000 82.7000 20 -1 9 319
1995255N14104 1995 64 NI BB NOT_NAMED 1995-09-18 09:00:00 NR 25.2148 82.4346 main 0 0 P_____________ IO011995 25.2148 82.4346 17 -1 8 323
1995255N14104 1995 64 NI BB NOT_NAMED 1995-09-18 12:00:00 NR 25.5000 82.2000 main 0 0 O_____________ jtwc_io IO011995 25.5000 82.2000 15 -1 7 319
1995255N14104 1995 64 NI BB NOT_NAMED 1995-09-18 15:00:00 NR 25.7650 81.9000 main 0 0 P_____________ IO011995 25.7650 81.9000 15 -1 7 313
1995255N14104 1995 64 NI BB NOT_NAMED 1995-09-18 18:00:00 NR 26.0000 81.6000 main 0 0 O_____________ jtwc_io IO011995 26.0000 81.6000 15 -1 7 312
1995255N14104 1995 64 NI BB NOT_NAMED 1995-09-18 21:00:00 NR 26.2073 81.3572 main 0 0 P_____________ IO011995 26.2073 81.3572 15 -1 6 312
1995255N14104 1995 64 NI BB NOT_NAMED 1995-09-19 00:00:00 NR 26.4000 81.1000 main 0 0 O_____________ jtwc_io IO011995 26.4000 81.1000 15 -1 7 306
1995255N14104 1995 64 NI BB NOT_NAMED 1995-09-19 03:00:00 NR 26.6000 80.7650 main 0 0 P_____________ IO011995 26.6000 80.7650 15 -1 7 303
1995255N14104 1995 64 NI BB NOT_NAMED 1995-09-19 06:00:00 NR 26.8000 80.4000 main 0 0 O_____________ jtwc_io IO011995 26.8000 80.4000 15 -1 8 303
1995255N14104 1995 64 NI BB NOT_NAMED 1995-09-19 09:00:00 NR 27.0074 80.0574 main 0 0 P_____________ IO011995 27.0074 80.0574 15 -1 7 303
1995255N14104 1995 64 NI BB NOT_NAMED 1995-09-19 12:00:00 NR 27.2000 79.7000 main 0 0 O_____________ jtwc_io IO011995 27.2000 79.7000 15 -1 7 298
1995255N14104 1995 64 NI BB NOT_NAMED 1995-09-19 15:00:00 NR 27.3574 79.3148 main 0 0 P_____________ IO011995 27.3574 79.3148 15 -1 8 293
1995255N14104 1995 64 NI BB NOT_NAMED 1995-09-19 18:00:00 NR 27.5000 78.9000 main 0 0 O_____________ jtwc_io IO011995 27.5000 78.9000 15 -1 8 291
1995255N14104 1995 64 NI BB NOT_NAMED 1995-09-19 21:00:00 NR 27.6478 78.4578 main 0 0 P_____________ IO011995 27.6478 78.4578 15 -1 9 291
1995255N14104 1995 64 NI AS NOT_NAMED 1995-09-20 00:00:00 NR 27.8000 78.0000 main 0 O_____________ jtwc_io IO011995 27.8000 78.0000 15 -1 9 291

Digital Typhoon Data and Search

About IBTrACS Database

This database is a web-friendly format of International Best Track Archive for Climate Stewardship (IBTrACS), a global best track data archive curated by NOAA dating back to 1842.

Updated: 2021-12-08